EST,Max TemperatureF,Mean TemperatureF,Min TemperatureF,Max Dew PointF,MeanDew PointF,Min DewpointF,Max Humidity, Mean Humidity, Min Humidity, Max Sea Level PressureIn, Mean Sea Level PressureIn, Min Sea Level PressureIn, Max VisibilityMiles, Mean VisibilityMiles, Min VisibilityMiles, Max Wind SpeedMPH, Mean Wind SpeedMPH, Max Gust SpeedMPH,PrecipitationIn, CloudCover, Events, WindDirDegrees
2014-1-1,32,25,18,19,16,9,71,60,49,30.41,30.33,30.22,10,10,10,12,4,15,0.00,6,,112
2014-1-2,29,23,16,20,16,12,88,79,69,30.20,29.93,29.71,10,6,0,21,13,24,0.35,8,Fog-Snow,55
2014-1-3,18,8,-3,13,3,-8,88,65,42,30.49,30.03,29.67,10,5,1,26,11,35,0.20,4,Snow,338
2014-1-4,26,11,-4,8,0,-9,80,61,42,30.53,30.43,30.31,10,10,8,12,3,15,0.00,0,,273
2014-1-5,40,21,1,39,18,-2,100,84,68,30.32,30.14,29.72,7,3,0,12,3,13,0.20,6,Fog-Rain,55
2014-1-6,55,31,7,53,34,-12,100,69,38,29.91,29.56,29.38,10,5,0,32,14,46,1.10,7,Fog-Rain,254
2014-1-7,8,4,-1,-8,-13,-18,55,48,41,30.42,30.22,29.94,10,10,10,30,16,41,0.00,1,,267
2014-1-8,20,12,4,5,-1,-7,69,56,43,30.58,30.51,30.43,10,10,10,16,7,20,0.00,2,,242
2014-1-9,33,24,15,17,10,5,74,55,36,30.67,30.60,30.51,10,10,10,7,1,10,0.00,2,,277
2014-1-10,34,30,26,32,25,15,96,77,58,30.57,30.41,30.19,10,4,0,6,2,8,0.19,8,Fog-Rain-Snow,53
2014-1-11,61,48,34,57,46,32,100,92,83,30.16,29.67,29.37,10,3,0,22,7,29,1.40,8,Fog-Rain,237
2014-1-12,48,39,29,37,28,24,78,66,53,30.09,29.83,29.47,10,10,10,25,11,33,0.00,6,,272
2014-1-13,55,40,24,34,30,22,92,69,46,30.12,30.02,29.86,10,8,3,16,3,20,0.00,0,,155
2014-1-14,47,41,35,44,40,34,100,80,60,29.89,29.78,29.70,10,4,0,9,3,12,0.38,7,Fog-Rain,234
2014-1-15,39,34,29,37,32,27,100,95,89,29.99,29.93,29.89,10,1,0,7,3,9,T,7,Fog,306
2014-1-16,39,32,24,29,25,17,85,68,50,29.98,29.93,29.86,10,9,2,12,4,15,T,6,Snow,260
2014-1-17,42,32,21,26,23,17,85,68,51,29.98,29.93,29.86,10,8,6,8,2,10,0.00,2,,98
2014-1-18,33,26,19,31,23,9,92,73,54,29.93,29.80,29.74,10,6,0,18,10,24,0.08,7,Fog-Snow,283
2014-1-19,34,26,17,22,15,9,75,66,56,29.90,29.78,29.68,10,10,5,20,9,25,T,4,Snow,245
2014-1-20,39,30,21,29,23,18,75,65,54,29.91,29.71,29.63,10,10,10,17,6,24,0.00,6,,265
2014-1-21,29,20,10,15,10,-6,84,65,46,30.01,29.93,29.86,10,3,0,16,10,20,0.34,6,Fog-Snow,28
2014-1-22,14,7,-1,-6,-9,-13,60,51,42,30.05,29.95,29.90,10,10,10,21,11,26,0.00,0,,325
2014-1-23,20,10,0,7,0,-7,76,61,45,30.34,30.18,30.06,10,10,6,21,8,26,0.00,4,Snow,265
2014-1-24,17,11,5,5,-1,-5,73,60,46,30.44,30.31,30.06,10,10,4,20,11,23,T,1,Snow,247
2014-1-25,22,18,13,18,12,-1,84,67,49,30.01,29.60,29.44,10,5,0,16,7,21,0.14,6,Fog-Snow,217
2014-1-26,24,19,13,15,4,-5,84,63,42,29.92,29.80,29.58,10,10,7,24,9,32,0.01,4,,253
2014-1-27,38,27,16,24,10,-3,77,55,32,30.13,29.81,29.64,10,10,8,25,8,35,0.00,4,,284
2014-1-28,16,12,7,-2,-6,-8,53,48,42,30.41,30.31,30.14,10,10,10,18,7,26,T,3,,270
2014-1-29,19,10,1,-2,-6,-11,56,45,34,30.32,30.22,30.15,10,10,10,18,9,26,T,1,,262
2014-1-30,26,13,0,5,-1,-6,83,58,33,30.47,30.36,30.20,10,10,9,12,2,14,0.00,0,,207
2014-1-31,32,24,16,20,13,5,69,58,47,30.25,30.17,30.12,10,10,9,10,2,13,0.00,5,,244